Time;durP1;ratioP1;P1;durP2;ratioP2;P2;SDS_P1;SDS_P2;PMS_P1;PMS_P2;Temp;Humidity;BMP_temperature;BMP_pressure;BME280_temperature;BME280_humidity;BME280_pressure;Samples;Min_cycle;Max_cycle;Signal;HPM_P1;HPM_P2
2022/05/07 00:02:47;;;;;;;;;;;;;;;6.59;61.35;101812.92;1743202;82;20187;-61
2022/05/07 00:05:53;;;;;;;;;;;;;;;6.57;61.36;101819.44;1743382;82;20219;-61
2022/05/07 00:08:59;;;;;;;;;;;;;;;6.52;61.34;101818.91;1743206;82;20202;-61
2022/05/07 00:12:06;;;;;;;;;;;;;;;6.49;61.43;101821.86;1743381;82;20800;-60
2022/05/07 00:15:10;;;;;;;;;;;;;;;6.46;61.50;101822.97;1742736;82;20575;-60
2022/05/07 00:18:16;;;;;;;;;;;;;;;6.44;61.53;101822.73;1742723;82;20224;-60
2022/05/07 00:21:20;;;;;;;;;;;;;;;6.44;61.64;101826.29;1742793;82;20196;-60
2022/05/07 00:24:24;;;;;;;;;;;;;;;6.43;61.74;101830.01;1742752;82;20216;-60
2022/05/07 00:27:29;;;;;;;;;;;;;;;6.43;61.80;101830.48;1743144;82;20188;-61
2022/05/07 00:30:34;;;;;;;;;;;;;;;6.42;61.83;101841.00;1743139;81;20281;-61
2022/05/07 00:33:40;;;;;;;;;;;;;;;6.39;61.87;101838.00;1692823;84;20206;-60
2022/05/07 00:36:45;;;;;;;;;;;;;;;6.34;61.85;101837.50;1709384;84;20203;-60
2022/05/07 00:39:51;;;;;;;;;;;;;;;6.29;61.87;101831.52;1709309;84;20182;-59
2022/05/07 00:42:57;;;;;;;;;;;;;;;6.25;61.89;101843.59;1709432;84;20191;-60
2022/05/07 00:46:02;;;;;;;;;;;;;;;6.22;61.95;101837.50;1709457;84;20187;-61
2022/05/07 00:49:07;;;;;;;;;;;;;;;6.15;61.92;101839.83;1696026;85;20225;-59
2022/05/07 00:52:13;;;;;;;;;;;;;;;6.09;61.90;101838.41;1696087;85;20185;-59
2022/05/07 00:55:19;;;;;;;;;;;;;;;6.05;62.00;101836.91;1696086;85;20268;-59
2022/05/07 00:58:25;;;;;;;;;;;;;;;6.02;62.07;101836.27;1679447;85;20200;-59
2022/05/07 01:01:33;;;;;;;;;;;;;;;5.99;62.15;101837.33;1696145;85;20285;-61
2022/05/07 01:04:39;;;;;;;;;;;;;;;5.99;62.30;101833.77;1696052;85;20333;-60
2022/05/07 01:07:45;;;;;;;;;;;;;;;5.99;62.39;101836.48;1695885;85;20233;-60
2022/05/07 01:10:50;;;;;;;;;;;;;;;5.98;62.46;101840.16;1696048;85;20198;-60
2022/05/07 01:13:55;;;;;;;;;;;;;;;5.98;62.55;101838.80;1679541;85;20324;-61
2022/05/07 01:17:01;;;;;;;;;;;;;;;5.96;62.61;101837.56;1695860;85;20530;-60
2022/05/07 01:20:09;;;;;;;;;;;;;;;5.97;62.70;101832.52;1695801;85;20625;-61
2022/05/07 01:23:15;;;;;;;;;;;;;;;5.96;62.72;101841.64;1696138;85;20201;-61
2022/05/07 01:26:24;;;;;;;;;;;;;;;5.90;62.65;101840.73;1679437;85;20541;-61
2022/05/07 01:29:26;;;;;;;;;;;;;;;5.84;62.58;101838.94;1696040;85;20221;-61
2022/05/07 01:32:31;;;;;;;;;;;;;;;5.79;62.60;101838.36;1698554;81;20229;-61
2022/05/07 01:35:36;;;;;;;;;;;;;;;5.75;62.60;101842.29;1700857;84;20621;-60
2022/05/07 01:38:40;;;;;;;;;;;;;;;5.72;62.74;101845.23;1701133;84;20225;-61
2022/05/07 01:41:47;;;;;;;;;;;;;;;5.70;62.82;101847.17;1700823;84;20236;-61
2022/05/07 01:44:51;;;;;;;;;;;;;;;5.65;62.82;101843.91;1700863;84;20538;-61
2022/05/07 01:48:11;;;;;;;;;;;;;;;5.62;62.86;101859.95;1668456;84;20276;-61
2022/05/07 01:51:18;;;;;;;;;;;;;;;5.62;62.97;101856.36;1700935;84;20204;-62
2022/05/07 01:54:23;;;;;;;;;;;;;;;5.61;63.10;101847.84;1700906;84;20229;-61
2022/05/07 01:57:29;;;;;;;;;;;;;;;5.62;63.23;101845.49;1668475;84;20537;-60
2022/05/07 02:00:34;;;;;;;;;;;;;;;5.62;63.31;101846.84;1700825;84;20561;-60
2022/05/07 02:03:39;;;;;;;;;;;;;;;5.62;63.40;101853.64;1666646;84;20540;-61
2022/05/07 02:06:47;;;;;;;;;;;;;;;5.62;63.43;101848.20;1701483;82;20260;-57
2022/05/07 02:09:52;;;;;;;;;;;;;;;5.60;63.46;101848.31;1679346;85;20201;-57
2022/05/07 02:13:01;;;;;;;;;;;;;;;5.61;63.48;101855.98;1700845;84;20217;-57
2022/05/07 02:16:08;;;;;;;;;;;;;;;5.60;63.50;101855.59;1700910;84;20209;-58
2022/05/07 02:19:15;;;;;;;;;;;;;;;5.56;63.50;101856.80;1700867;84;20206;-58
2022/05/07 02:22:20;;;;;;;;;;;;;;;5.56;63.63;101852.25;1677443;84;20193;-58
2022/05/07 02:25:26;;;;;;;;;;;;;;;5.55;63.71;101851.84;1680656;84;20533;-58
2022/05/07 02:28:39;;;;;;;;;;;;;;;5.55;63.73;101861.34;1679472;84;20205;-61
2022/05/07 02:32:06;;;;;;;;;;;;;;;5.50;63.65;101864.02;1700680;84;20213;-57
2022/05/07 02:35:12;;;;;;;;;;;;;;;5.46;63.62;101862.00;1743066;82;20192;-58
2022/05/07 02:38:17;;;;;;;;;;;;;;;5.45;63.66;101867.55;1692464;84;20553;-58
2022/05/07 02:44:49;;;;;;;;;;;;;;;5.47;63.89;101875.10;1743907;82;20184;-58
2022/05/07 02:47:54;;;;;;;;;;;;;;;5.46;63.92;101876.06;1743401;82;20184;-57
2022/05/07 02:51:00;;;;;;;;;;;;;;;5.45;63.92;101883.36;1729156;82;20230;-58
2022/05/07 02:54:08;;;;;;;;;;;;;;;5.48;64.05;101883.14;1742999;82;20608;-57
2022/05/07 02:57:12;;;;;;;;;;;;;;;5.53;64.16;101884.17;1742967;82;20224;-58
2022/05/07 03:00:19;;;;;;;;;;;;;;;5.55;64.18;101876.80;1743110;82;20544;-57
2022/05/07 03:03:24;;;;;;;;;;;;;;;5.56;64.17;101879.41;1743834;82;20529;-58
2022/05/07 03:06:29;;;;;;;;;;;;;;;5.60;64.23;101879.56;1743777;82;20199;-59
2022/05/07 03:09:32;;;;;;;;;;;;;;;5.66;64.33;101874.20;1743037;82;20200;-57
2022/05/07 03:12:45;;;;;;;;;;;;;;;5.71;64.36;101870.64;1744090;82;20568;-58
2022/05/07 03:15:54;;;;;;;;;;;;;;;5.76;64.38;101872.06;1743778;82;20192;-61
2022/05/07 03:18:58;;;;;;;;;;;;;;;5.82;64.47;101874.37;1743491;82;20224;-61
2022/05/07 03:22:03;;;;;;;;;;;;;;;5.94;64.64;101881.67;1743801;82;20275;-61
2022/05/07 03:25:09;;;;;;;;;;;;;;;6.07;64.78;101888.45;1744060;82;20263;-61
2022/05/07 03:28:15;;;;;;;;;;;;;;;6.24;64.95;101888.57;1743274;82;20196;-62
2022/05/07 03:31:21;;;;;;;;;;;;;;;6.37;65.03;101886.23;1743601;82;20220;-61
2022/05/07 03:34:25;;;;;;;;;;;;;;;6.51;65.06;101892.88;1743882;79;20176;-60
2022/05/07 03:37:34;;;;;;;;;;;;;;;6.62;65.04;101890.23;1743722;82;20552;-61
2022/05/07 03:40:40;;;;;;;;;;;;;;;6.72;65.00;101891.30;1743469;82;20188;-61
2022/05/07 03:43:48;;;;;;;;;;;;;;;6.83;65.04;101889.12;1743515;82;20525;-62
2022/05/07 03:46:56;;;;;;;;;;;;;;;6.94;65.09;101887.33;1743467;82;20223;-59
2022/05/07 03:50:14;;;;;;;;;;;;;;;7.08;65.18;101884.42;1737422;82;20229;-61
2022/05/07 03:53:32;;;;;;;;;;;;;;;7.23;65.26;101890.05;1726004;83;20566;-61
2022/05/07 03:56:40;;;;;;;;;;;;;;;7.37;65.28;101885.75;1722455;83;20175;-61
2022/05/07 03:59:51;;;;;;;;;;;;;;;7.55;65.27;101881.61;1722777;83;20238;-62
2022/05/07 04:03:00;;;;;;;;;;;;;;;7.73;65.25;101878.42;1723657;83;20227;-63
2022/05/07 04:06:08;;;;;;;;;;;;;;;7.88;65.21;101882.67;1722503;83;20206;-61
2022/05/07 04:09:13;;;;;;;;;;;;;;;8.02;65.20;101876.49;1722505;82;20709;-61
2022/05/07 04:12:18;;;;;;;;;;;;;;;8.18;65.15;101870.66;1722667;82;20203;-61
2022/05/07 04:15:25;;;;;;;;;;;;;;;8.33;65.13;101872.16;1697111;83;20250;-61
2022/05/07 04:18:30;;;;;;;;;;;;;;;8.47;65.12;101875.50;1721882;82;20561;-61
2022/05/07 04:21:42;;;;;;;;;;;;;;;8.63;65.11;101887.38;1722218;83;20246;-61
2022/05/07 04:24:51;;;;;;;;;;;;;;;8.77;65.11;101885.25;1723078;82;20459;-60
2022/05/07 04:27:58;;;;;;;;;;;;;;;8.93;65.04;101889.80;1722363;83;20474;-61
2022/05/07 04:31:05;;;;;;;;;;;;;;;9.06;64.93;101897.34;1706785;83;20206;-61
2022/05/07 04:34:12;;;;;;;;;;;;;;;9.19;64.92;101893.07;1722053;83;20590;-61
2022/05/07 04:37:18;;;;;;;;;;;;;;;9.34;64.93;101902.68;1720801;83;20219;-60
2022/05/07 04:40:22;;;;;;;;;;;;;;;9.47;64.91;101901.13;1697528;83;20221;-60
2022/05/07 04:43:29;;;;;;;;;;;;;;;9.62;64.86;101903.92;1678714;83;20209;-60
2022/05/07 04:46:36;;;;;;;;;;;;;;;9.75;64.80;101897.23;1711163;83;20572;-62
2022/05/07 04:49:44;;;;;;;;;;;;;;;9.88;64.73;101902.02;1723556;80;20534;-61
2022/05/07 04:52:53;;;;;;;;;;;;;;;10.00;64.70;101900.08;1721508;83;20235;-60
2022/05/07 04:55:58;;;;;;;;;;;;;;;10.12;64.62;101902.62;1723119;82;20210;-61
2022/05/07 04:59:09;;;;;;;;;;;;;;;10.23;64.62;101894.33;1713926;83;20567;-60
2022/05/07 05:02:15;;;;;;;;;;;;;;;10.36;64.61;101889.50;1692901;84;20205;-60
2022/05/07 05:05:21;;;;;;;;;;;;;;;10.51;64.63;101896.84;1692402;84;20253;-60
2022/05/07 05:08:30;;;;;;;;;;;;;;;10.65;64.57;101895.57;1692414;84;20256;-60
2022/05/07 05:11:37;;;;;;;;;;;;;;;10.79;64.54;101899.28;1692528;84;20264;-60
2022/05/07 05:18:14;;;;;;;;;;;;;;;11.01;64.44;101894.93;1693988;84;20221;-61
2022/05/07 05:21:20;;;;;;;;;;;;;;;11.13;64.39;101886.95;1692967;84;20264;-61
2022/05/07 05:24:28;;;;;;;;;;;;;;;11.25;64.40;101894.91;1692948;84;20217;-60
2022/05/07 05:27:35;;;;;;;;;;;;;;;11.39;64.32;101890.35;1693745;84;20217;-61
2022/05/07 05:30:40;;;;;;;;;;;;;;;11.52;64.24;101894.17;1693424;84;20221;-61
2022/05/07 05:33:46;;;;;;;;;;;;;;;11.65;64.22;101893.41;1693940;84;20216;-60
2022/05/07 05:37:01;;;;;;;;;;;;;;;11.80;64.22;101883.70;1694039;84;20202;-59
2022/05/07 05:40:09;;;;;;;;;;;;;;;11.95;64.18;101889.97;1693619;84;20221;-61
2022/05/07 05:43:17;;;;;;;;;;;;;;;12.10;64.12;101894.98;1693241;84;20217;-60
2022/05/07 05:46:22;;;;;;;;;;;;;;;12.24;64.03;101898.63;1693401;85;20217;-60
2022/05/07 05:49:27;;;;;;;;;;;;;;;12.39;63.99;101897.11;1693693;84;20237;-60
2022/05/07 05:52:33;;;;;;;;;;;;;;;12.55;63.97;101894.59;1693553;84;20561;-61
2022/05/07 05:55:39;;;;;;;;;;;;;;;12.67;63.91;101896.98;1693195;84;20233;-61
2022/05/07 05:58:46;;;;;;;;;;;;;;;12.79;63.80;101893.53;1694400;83;20548;-61
2022/05/07 06:01:59;;;;;;;;;;;;;;;12.90;63.64;101892.81;1690429;84;20237;-62
2022/05/07 06:05:07;;;;;;;;;;;;;;;12.98;63.47;101895.66;1693110;84;20217;-62
2022/05/07 06:08:14;;;;;;;;;;;;;;;13.09;63.37;101902.34;1693130;84;20177;-61
2022/05/07 06:11:20;;;;;;;;;;;;;;;13.18;63.28;101901.41;1693500;84;20205;-61
2022/05/07 06:14:28;;;;;;;;;;;;;;;13.24;63.14;101900.77;1693317;84;20276;-61
2022/05/07 06:17:36;;;;;;;;;;;;;;;13.35;63.11;101896.95;1693533;84;20209;-60
2022/05/07 06:20:41;;;;;;;;;;;;;;;13.47;63.03;101906.18;1693902;84;20221;-62
2022/05/07 06:23:48;;;;;;;;;;;;;;;13.59;62.97;101905.41;1693502;84;20264;-61
2022/05/07 06:30:16;;;;;;;;;;;;;;;13.77;62.55;101910.90;1692831;84;20205;-61
2022/05/07 06:33:21;;;;;;;;;;;;;;;13.81;62.40;101909.57;1693155;84;20557;-61
2022/05/07 06:36:36;;;;;;;;;;;;;;;13.87;62.31;101910.30;1692895;85;20209;-61
2022/05/07 06:39:41;;;;;;;;;;;;;;;13.94;62.19;101901.23;1692795;84;20217;-61
2022/05/07 06:42:46;;;;;;;;;;;;;;;14.03;62.17;101905.80;1701747;83;20613;-60
2022/05/07 06:45:56;;;;;;;;;;;;;;;14.13;62.12;101900.19;1692489;84;20225;-60
2022/05/07 06:49:05;;;;;;;;;;;;;;;14.22;62.02;101899.20;1692371;84;20217;-61
2022/05/07 06:52:18;;;;;;;;;;;;;;;14.25;61.75;101894.28;1698420;81;20766;-61
2022/05/07 06:55:22;;;;;;;;;;;;;;;14.29;61.67;101898.41;1695304;84;20221;-61
2022/05/07 06:58:32;;;;;;;;;;;;;;;14.38;61.57;101891.08;1692051;85;20217;-61
2022/05/07 07:01:40;;;;;;;;;;;;;;;14.44;61.39;101886.28;1692486;84;20216;-61
2022/05/07 07:04:46;;;;;;;;;;;;;;;14.50;61.28;101885.62;1692521;84;20209;-61
2022/05/07 07:07:52;;;;;;;;;;;;;;;14.62;61.18;101881.52;1692392;85;20217;-60
2022/05/07 07:10:56;;;;;;;;;;;;;;;14.74;61.10;101876.08;1692568;85;20265;-60
2022/05/07 07:14:02;;;;;;;;;;;;;;;14.84;60.97;101881.80;1692435;85;20212;-61
2022/05/07 07:17:27;;;;;;;;;;;;;;;14.91;60.77;101884.75;1698119;83;20226;-61
2022/05/07 07:20:33;;;;;;;;;;;;;;;15.01;60.61;101888.25;1692478;85;20602;-61
2022/05/07 07:23:39;;;;;;;;;;;;;;;15.07;60.46;101876.53;1693097;85;20668;-60
2022/05/07 07:26:49;;;;;;;;;;;;;;;15.15;60.37;101880.69;1695883;84;20221;-61
2022/05/07 07:29:54;;;;;;;;;;;;;;;15.25;60.26;101878.66;1693847;84;20592;-61
2022/05/07 07:33:07;;;;;;;;;;;;;;;15.35;60.17;101875.20;1694054;84;20529;-61
2022/05/07 07:36:16;;;;;;;;;;;;;;;15.43;59.95;101882.14;1693168;85;20248;-61
2022/05/07 07:39:22;;;;;;;;;;;;;;;15.46;59.79;101883.17;1693337;84;20220;-62
2022/05/07 07:42:27;;;;;;;;;;;;;;;15.57;59.68;101871.80;1693251;84;20236;-61
2022/05/07 07:48:59;;;;;;;;;;;;;;;15.76;59.36;101872.84;1693313;84;20248;-60
2022/05/07 07:52:05;;;;;;;;;;;;;;;15.82;59.20;101872.17;1694743;81;20613;-62
2022/05/07 07:55:13;;;;;;;;;;;;;;;15.92;59.07;101870.06;1679924;84;20236;-61
2022/05/07 07:58:24;;;;;;;;;;;;;;;16.02;58.96;101864.36;1671752;85;20296;-63
2022/05/07 08:01:29;;;;;;;;;;;;;;;16.12;58.82;101867.80;1679245;85;20208;-61
2022/05/07 08:04:34;;;;;;;;;;;;;;;16.26;58.66;101878.13;1679410;85;20198;-61
2022/05/07 08:14:18;;;;;;;;;;;;;;;16.44;58.14;101870.50;1679798;85;20320;-62
2022/05/07 08:17:26;;;;;;;;;;;;;;;16.43;57.97;101864.09;1679390;85;20577;-61
2022/05/07 08:20:34;;;;;;;;;;;;;;;16.44;57.74;101864.45;1679045;85;20450;-62
2022/05/07 08:23:40;;;;;;;;;;;;;;;16.40;57.49;101860.30;1679352;84;20234;-60
2022/05/07 08:26:43;;;;;;;;;;;;;;;16.48;57.38;101858.56;1689836;84;20236;-61
2022/05/07 08:29:49;;;;;;;;;;;;;;;16.62;57.33;101857.31;1693807;84;20492;-61
2022/05/07 08:32:55;;;;;;;;;;;;;;;16.78;57.25;101845.30;1688637;84;20594;-61
2022/05/07 08:36:00;;;;;;;;;;;;;;;16.85;57.00;101844.94;1683675;84;20253;-63
2022/05/07 08:39:07;;;;;;;;;;;;;;;16.92;56.91;101839.87;1679685;85;20525;-61
2022/05/07 08:42:13;;;;;;;;;;;;;;;17.03;56.76;101833.08;1679546;85;20212;-61
2022/05/07 08:45:20;;;;;;;;;;;;;;;17.14;56.59;101826.59;1679161;85;20526;-60
2022/05/07 08:48:27;;;;;;;;;;;;;;;17.29;56.55;101830.81;1685481;84;20554;-59
2022/05/07 08:51:31;;;;;;;;;;;;;;;17.42;56.39;101830.55;1688326;84;20575;-62
2022/05/07 08:54:37;;;;;;;;;;;;;;;17.59;56.34;101832.17;1711629;81;20215;-60
2022/05/07 08:57:45;;;;;;;;;;;;;;;17.80;56.29;101826.79;1702877;83;20225;-60
2022/05/07 09:00:50;;;;;;;;;;;;;;;17.99;56.12;101807.38;1700642;83;20216;-60
2022/05/07 09:03:55;;;;;;;;;;;;;;;18.14;55.85;101804.62;1701945;83;20207;-59
2022/05/07 09:07:05;;;;;;;;;;;;;;;18.27;55.63;101807.05;1698639;83;20205;-59
2022/05/07 09:10:16;;;;;;;;;;;;;;;18.38;55.48;101794.12;1693087;84;20205;-61
2022/05/07 09:13:23;;;;;;;;;;;;;;;18.54;55.21;101795.81;1693544;84;20216;-61
2022/05/07 09:16:31;;;;;;;;;;;;;;;18.54;54.91;101794.43;1693467;84;20241;-60
2022/05/07 09:19:38;;;;;;;;;;;;;;;18.68;54.86;101792.19;1700092;83;20210;-61
2022/05/07 09:22:44;;;;;;;;;;;;;;;18.73;54.50;101788.27;1720616;82;20218;-60
2022/05/07 09:25:53;;;;;;;;;;;;;;;18.89;54.41;101791.69;1709981;83;20217;-60
2022/05/07 09:28:58;;;;;;;;;;;;;;;19.07;54.27;101783.80;1709572;82;20731;-61
2022/05/07 09:32:16;;;;;;;;;;;;;;;19.25;54.08;101784.70;1707225;84;20213;-61
2022/05/07 09:38:44;;;;;;;;;;;;;;;19.29;53.40;101783.30;1717821;82;20218;-61
2022/05/07 09:41:50;;;;;;;;;;;;;;;19.14;53.29;101786.09;1720720;83;20575;-60
2022/05/07 09:44:59;;;;;;;;;;;;;;;19.19;53.15;101784.98;1721096;83;20543;-60
2022/05/07 09:48:08;;;;;;;;;;;;;;;19.26;52.99;101776.72;1744023;81;20192;-61
2022/05/07 09:51:16;;;;;;;;;;;;;;;19.29;52.69;101772.19;1736911;81;20522;-62
2022/05/07 09:57:48;;;;;;;;;;;;;;;19.58;52.57;101765.62;1707892;84;20227;-63
2022/05/07 10:01:05;;;;;;;;;;;;;;;19.95;52.53;101756.91;1707537;84;20514;-61
2022/05/07 10:04:25;;;;;;;;;;;;;;;20.28;52.36;101756.09;1712023;81;20198;-61
2022/05/07 10:08:02;;;;;;;;;;;;;;;20.47;52.09;101749.77;1736668;83;20218;-60
2022/05/07 10:11:08;;;;;;;;;;;;;;;20.60;51.68;101748.44;1736441;82;20214;-60
2022/05/07 10:14:12;;;;;;;;;;;;;;;20.65;51.35;101753.38;1736592;81;20214;-61
2022/05/07 10:17:21;;;;;;;;;;;;;;;20.53;51.02;101747.54;1736936;82;20249;-62
2022/05/07 10:20:28;;;;;;;;;;;;;;;20.48;51.00;101741.77;1736906;83;20218;-62
2022/05/07 10:23:38;;;;;;;;;;;;;;;20.68;51.09;101733.47;1735620;81;20214;-61
2022/05/07 10:26:49;;;;;;;;;;;;;;;20.83;50.99;101725.27;1736660;82;20218;-62
2022/05/07 10:29:54;;;;;;;;;;;;;;;20.97;50.93;101733.70;1736611;82;20210;-61
2022/05/07 10:33:07;;;;;;;;;;;;;;;21.25;50.85;101717.14;1719195;82;20574;-62
2022/05/07 10:36:19;;;;;;;;;;;;;;;21.51;50.58;101725.52;1736835;83;20567;-61
2022/05/07 10:39:28;;;;;;;;;;;;;;;21.42;50.01;101725.95;1737616;82;20270;-62
2022/05/07 10:42:35;;;;;;;;;;;;;;;21.15;49.80;101716.72;1738009;82;20238;-58
2022/05/07 10:45:49;;;;;;;;;;;;;;;21.03;49.65;101721.19;1702805;82;20262;-58
2022/05/07 10:48:57;;;;;;;;;;;;;;;20.96;49.50;101721.72;1737515;82;20186;-58
2022/05/07 10:52:06;;;;;;;;;;;;;;;20.83;49.46;101711.91;1737770;82;20190;-60
2022/05/07 10:55:19;;;;;;;;;;;;;;;20.83;49.45;101711.03;1726166;81;20234;-59
2022/05/07 10:58:37;;;;;;;;;;;;;;;20.81;49.33;101705.69;1705757;84;20287;-59
2022/05/07 11:01:43;;;;;;;;;;;;;;;20.75;49.09;101707.92;1709313;83;20238;-59
2022/05/07 11:04:50;;;;;;;;;;;;;;;20.65;49.11;101704.67;1728875;83;20497;-59
2022/05/07 11:08:00;;;;;;;;;;;;;;;20.88;49.20;101692.65;1734382;82;20250;-60
2022/05/07 11:11:15;;;;;;;;;;;;;;;21.37;49.31;101696.47;1691821;84;20265;-60
2022/05/07 11:14:32;;;;;;;;;;;;;;;21.81;49.32;101691.97;1689554;85;20505;-59
2022/05/07 11:17:41;;;;;;;;;;;;;;;22.17;49.12;101683.92;1690059;85;20218;-60
2022/05/07 11:20:47;;;;;;;;;;;;;;;22.48;48.99;101680.89;1690224;85;20218;-58
2022/05/07 11:23:52;;;;;;;;;;;;;;;22.57;48.67;101672.61;1690553;84;20226;-59
2022/05/07 11:27:02;;;;;;;;;;;;;;;22.51;48.34;101670.68;1690313;85;20281;-59
2022/05/07 11:30:12;;;;;;;;;;;;;;;22.28;47.97;101667.58;1724342;81;20273;-59
2022/05/07 11:33:18;;;;;;;;;;;;;;;22.25;47.97;101672.21;1707963;82;20220;-58
2022/05/07 11:36:23;;;;;;;;;;;;;;;22.12;47.75;101669.77;1704739;83;20220;-60
2022/05/07 11:39:33;;;;;;;;;;;;;;;21.97;47.70;101658.03;1692812;82;20222;-60
2022/05/07 11:45:25;;;;;;;;;;;;;;;21.88;47.55;101655.14;1740176;82;20218;-59
2022/05/07 11:46:11;;;;;;;;;;;;;;;21.86;47.55;101662.90;1740481;82;20285;-59
2022/05/07 11:49:17;;;;;;;;;;;;;;;21.86;47.27;101657.32;1740622;82;20254;-59
2022/05/07 11:52:23;;;;;;;;;;;;;;;21.79;47.16;101648.09;1740082;82;20317;-60
2022/05/07 11:55:33;;;;;;;;;;;;;;;21.81;47.19;101650.14;1730969;81;20587;-59
2022/05/07 11:58:38;;;;;;;;;;;;;;;21.96;47.29;101638.17;1763295;81;20228;-60
2022/05/07 12:01:43;;;;;;;;;;;;;;;22.23;47.29;101642.27;1764237;80;20212;-59
2022/05/07 12:04:48;;;;;;;;;;;;;;;22.54;47.29;101636.77;1764625;81;20251;-58
2022/05/07 12:07:55;;;;;;;;;;;;;;;22.89;47.25;101633.86;1765312;80;20204;-59
2022/05/07 12:11:01;;;;;;;;;;;;;;;23.17;47.07;101621.16;1765794;80;20208;-59
2022/05/07 12:14:06;;;;;;;;;;;;;;;23.35;46.74;101625.45;1766280;80;20238;-59
2022/05/07 12:20:36;;;;;;;;;;;;;;;23.64;46.73;101615.48;1736503;82;20210;-59
2022/05/07 12:30:29;;;;;;;;;;;;;;;23.47;46.09;101609.63;1734605;82;20238;-60
2022/05/07 12:33:37;;;;;;;;;;;;;;;23.34;45.93;101606.95;1720882;82;20563;-59
2022/05/07 12:36:41;;;;;;;;;;;;;;;23.49;45.98;101606.59;1731197;83;20606;-59
2022/05/07 12:39:45;;;;;;;;;;;;;;;23.69;45.88;101598.00;1731653;82;20206;-61
2022/05/07 12:42:53;;;;;;;;;;;;;;;23.79;45.73;101590.77;1736140;82;20206;-58
2022/05/07 12:45:58;;;;;;;;;;;;;;;23.93;45.63;101592.31;1720203;81;20218;-58
2022/05/07 12:49:04;;;;;;;;;;;;;;;24.04;45.33;101584.56;1721113;83;20281;-60
2022/05/07 12:52:10;;;;;;;;;;;;;;;24.00;44.99;101583.34;1722327;83;20218;-59
2022/05/07 12:55:15;;;;;;;;;;;;;;;23.91;44.87;101574.94;1731366;81;20216;-60
2022/05/07 12:58:19;;;;;;;;;;;;;;;23.72;44.64;101570.97;1712013;82;20204;-61
2022/05/07 13:01:26;;;;;;;;;;;;;;;23.48;44.58;101566.59;1707421;84;20224;-60
2022/05/07 13:04:32;;;;;;;;;;;;;;;23.64;44.80;101579.13;1708006;83;20221;-57
2022/05/07 13:07:36;;;;;;;;;;;;;;;23.89;44.80;101577.11;1708426;81;20216;-57
2022/05/07 13:10:43;;;;;;;;;;;;;;;24.00;44.59;101577.75;1710682;82;20220;-59
2022/05/07 13:13:48;;;;;;;;;;;;;;;23.95;44.25;101572.50;1744296;82;20682;-59
2022/05/07 13:16:52;;;;;;;;;;;;;;;23.72;44.11;101568.17;1750949;81;20217;-60
2022/05/07 13:19:59;;;;;;;;;;;;;;;23.34;43.93;101562.80;1750960;81;20209;-59
2022/05/07 13:23:05;;;;;;;;;;;;;;;23.02;43.73;101559.73;1750038;81;20645;-59
2022/05/07 13:26:10;;;;;;;;;;;;;;;22.90;43.78;101555.42;1743710;82;20241;-61
2022/05/07 13:29:17;;;;;;;;;;;;;;;22.91;43.79;101560.48;1742497;82;20556;-60
2022/05/07 13:32:23;;;;;;;;;;;;;;;23.24;43.89;101553.51;1743935;81;20203;-60
2022/05/07 13:35:28;;;;;;;;;;;;;;;23.63;43.73;101549.44;1757941;81;20211;-58
2022/05/07 13:38:32;;;;;;;;;;;;;;;23.57;43.28;101547.58;1729867;81;20264;-59
2022/05/07 13:41:36;;;;;;;;;;;;;;;23.77;43.37;101554.34;1726427;82;20593;-59
2022/05/07 13:44:40;;;;;;;;;;;;;;;24.07;43.28;101555.28;1738101;82;20535;-61
2022/05/07 13:47:47;;;;;;;;;;;;;;;24.39;43.17;101554.80;1739751;82;20191;-59
2022/05/07 13:50:52;;;;;;;;;;;;;;;24.53;42.75;101545.67;1739646;82;20222;-60
2022/05/07 13:53:57;;;;;;;;;;;;;;;24.70;42.35;101540.58;1739386;82;20245;-60
2022/05/07 13:57:01;;;;;;;;;;;;;;;24.81;42.21;101538.34;1739715;82;20205;-61
2022/05/07 14:00:06;;;;;;;;;;;;;;;24.85;42.25;101532.55;1741856;80;20590;-62
2022/05/07 14:03:11;;;;;;;;;;;;;;;24.93;42.37;101536.94;1741987;82;20202;-60
2022/05/07 14:06:18;;;;;;;;;;;;;;;25.28;42.05;101536.95;1727091;82;20214;-59
2022/05/07 14:09:21;;;;;;;;;;;;;;;25.60;41.53;101543.91;1705022;84;20524;-59
2022/05/07 14:12:29;;;;;;;;;;;;;;;25.42;41.43;101543.50;1726462;83;20311;-58
2022/05/07 14:15:33;;;;;;;;;;;;;;;25.09;41.46;101534.83;1727266;83;20218;-58
2022/05/07 14:18:36;;;;;;;;;;;;;;;24.68;41.31;101539.95;1731865;81;20214;-58
2022/05/07 14:21:42;;;;;;;;;;;;;;;24.37;41.28;101537.38;1723709;81;20238;-58
2022/05/07 14:24:48;;;;;;;;;;;;;;;24.29;41.41;101534.08;1732371;83;20246;-59
2022/05/07 14:27:55;;;;;;;;;;;;;;;24.29;41.34;101541.08;1733719;82;20259;-59
2022/05/07 14:31:00;;;;;;;;;;;;;;;24.13;41.18;101532.81;1731616;82;20214;-59
2022/05/07 14:34:05;;;;;;;;;;;;;;;23.86;41.18;101528.63;1722361;83;20218;-58
2022/05/07 14:37:11;;;;;;;;;;;;;;;23.81;41.30;101529.00;1730127;82;20215;-59
2022/05/07 14:40:34;;;;;;;;;;;;;;;23.89;41.35;101526.75;1724883;82;20208;-59
2022/05/07 14:43:41;;;;;;;;;;;;;;;24.25;41.24;101523.90;1716550;83;20270;-59
2022/05/07 14:46:47;;;;;;;;;;;;;;;24.80;40.91;101521.21;1732674;82;20223;-59
2022/05/07 14:49:52;;;;;;;;;;;;;;;25.11;40.65;101512.16;1724574;83;20203;-59
2022/05/07 14:52:59;;;;;;;;;;;;;;;25.97;40.35;101513.86;1716404;83;20298;-59
2022/05/07 14:56:05;;;;;;;;;;;;;;;26.95;39.55;101513.52;1734856;82;20207;-60
2022/05/07 14:59:09;;;;;;;;;;;;;;;27.40;39.07;101503.84;1716346;81;20225;-60
2022/05/07 15:02:19;;;;;;;;;;;;;;;27.24;38.94;101505.27;1700253;84;20225;-60
2022/05/07 15:05:22;;;;;;;;;;;;;;;26.83;39.12;101506.56;1696466;83;20217;-61
2022/05/07 15:11:50;;;;;;;;;;;;;;;26.27;38.87;101500.45;1703434;84;20208;-60
2022/05/07 15:14:56;;;;;;;;;;;;;;;25.69;39.17;101494.77;1675249;85;20222;-58
2022/05/07 15:18:02;;;;;;;;;;;;;;;25.35;39.32;101494.27;1675284;84;20218;-59
2022/05/07 15:21:07;;;;;;;;;;;;;;;24.94;39.37;101496.06;1674709;85;20223;-59
2022/05/07 15:24:13;;;;;;;;;;;;;;;24.43;39.45;101502.86;1674266;85;20571;-58
2022/05/07 15:27:18;;;;;;;;;;;;;;;23.93;39.46;101511.19;1686196;83;20218;-59
2022/05/07 15:30:24;;;;;;;;;;;;;;;23.44;39.39;101502.99;1674932;84;20215;-59
2022/05/07 15:36:54;;;;;;;;;;;;;;;22.43;39.58;101507.66;1674234;85;20618;-58
2022/05/07 15:40:01;;;;;;;;;;;;;;;22.07;39.73;101508.34;1673369;85;20485;-59
2022/05/07 15:43:08;;;;;;;;;;;;;;;21.84;39.77;101514.47;1673896;85;20217;-60
2022/05/07 15:46:17;;;;;;;;;;;;;;;21.63;39.85;101513.87;1674663;85;20220;-61
2022/05/07 15:49:22;;;;;;;;;;;;;;;21.43;39.87;101515.34;1683443;83;20215;-60
2022/05/07 15:52:27;;;;;;;;;;;;;;;21.19;39.92;101507.70;1673181;85;20226;-60
2022/05/07 15:55:34;;;;;;;;;;;;;;;21.02;39.97;101508.37;1680407;84;20216;-61
2022/05/07 15:58:42;;;;;;;;;;;;;;;20.88;40.03;101520.04;1685514;83;20316;-59
2022/05/07 16:01:48;;;;;;;;;;;;;;;20.74;40.04;101515.00;1691303;83;20512;-59
2022/05/07 16:04:53;;;;;;;;;;;;;;;20.65;40.03;101521.86;1709994;81;20198;-59
2022/05/07 16:07:58;;;;;;;;;;;;;;;20.66;39.97;101519.38;1715429;82;20216;-59
2022/05/07 16:11:03;;;;;;;;;;;;;;;20.87;39.74;101515.52;1729331;83;20237;-60
2022/05/07 16:14:10;;;;;;;;;;;;;;;21.14;39.48;101517.23;1737555;82;20210;-59
2022/05/07 16:17:16;;;;;;;;;;;;;;;21.24;39.34;101519.57;1737850;81;20223;-58
2022/05/07 16:20:24;;;;;;;;;;;;;;;21.06;39.30;101520.80;1715672;82;20221;-59
2022/05/07 16:26:56;;;;;;;;;;;;;;;20.37;39.55;101530.94;1637742;87;20262;-59
2022/05/07 16:30:00;;;;;;;;;;;;;;;20.02;39.74;101528.45;1707075;84;20252;-59
2022/05/07 16:33:06;;;;;;;;;;;;;;;19.74;39.85;101535.51;1724216;82;20206;-58
2022/05/07 16:36:16;;;;;;;;;;;;;;;19.47;39.96;101525.89;1707436;84;20608;-59
2022/05/07 16:39:24;;;;;;;;;;;;;;;19.16;40.01;101531.34;1721982;81;20238;-57
2022/05/07 16:42:28;;;;;;;;;;;;;;;18.89;40.10;101532.20;1725213;82;20221;-57
2022/05/07 16:45:35;;;;;;;;;;;;;;;18.63;40.16;101530.59;1707450;83;20269;-59
2022/05/07 16:48:40;;;;;;;;;;;;;;;18.36;40.18;101535.53;1709351;83;20205;-59
2022/05/07 16:51:47;;;;;;;;;;;;;;;18.10;40.23;101532.50;1730210;82;20512;-58
2022/05/07 16:54:53;;;;;;;;;;;;;;;17.85;40.27;101537.53;1727854;81;20221;-58